Terminal Aerodrome Forecast
Issued by NWS

Home | Current Version | Previous Version | Graphics & Text | Print | Product List | Glossary On
Versions: 1 2 3 4 5 6 7 8 9 10 11 12 13 14 15 16 17 18 19 20 21 22 23 24 25 26 27 28 29 30 31 32 33 34 35 36 37 38 39 40 41 42
818
FTUS43 KGRB 201251 AAB
TAFATW
TAF AMD
KATW 201251Z 2013/2112 08005KT 5SM BR OVC005
      TEMPO 2013/2014 2SM -FZRA BR OVC003
     FM201800 23006KT 5SM BR OVC006
     FM202100 27009G17KT P6SM OVC012
     FM210000 28010G18KT P6SM SCT025=

USA.gov is the U.S. government's official web portal to all federal, state and local government web resources and services.